createdAt,value
2017-11-10T00:00:07.035Z,35.00
2017-11-10T00:02:33.239Z,35.80
2017-11-10T00:05:01.705Z,41.80
2017-11-10T00:07:27.949Z,34.87
2017-11-10T00:09:55.130Z,36.40
2017-11-10T00:12:24.293Z,38.43
2017-11-10T00:14:50.575Z,47.83
2017-11-10T00:17:16.773Z,28.47
2017-11-10T00:19:42.974Z,35.53
2017-11-10T00:22:09.894Z,30.83
2017-11-10T00:24:36.104Z,34.50
2017-11-10T00:27:03.067Z,35.77
2017-11-10T00:29:29.452Z,36.47
2017-11-10T00:31:55.672Z,35.60
2017-11-10T00:34:22.714Z,36.80
2017-11-10T00:36:51.096Z,38.20
2017-11-10T00:39:18.311Z,33.23
2017-11-10T00:41:44.503Z,36.97
2017-11-10T00:44:11.663Z,35.97
2017-11-10T00:46:37.918Z,38.73
2017-11-10T00:49:04.104Z,36.63
2017-11-10T00:51:31.095Z,38.07
2017-11-10T00:53:57.635Z,34.57
2017-11-10T00:56:23.842Z,37.03
2017-11-10T00:58:50.094Z,37.07
2017-11-10T01:01:16.883Z,32.80
2017-11-10T01:03:43.080Z,38.30
2017-11-10T01:06:09.720Z,38.60
2017-11-10T01:08:35.922Z,42.20
2017-11-10T01:11:02.142Z,39.83
2017-11-10T01:13:28.327Z,36.70
2017-11-10T01:15:54.502Z,37.00
2017-11-10T01:18:20.752Z,40.20
2017-11-10T01:20:46.963Z,40.50
2017-11-10T01:23:13.180Z,35.23
2017-11-10T01:25:39.456Z,39.23
2017-11-10T01:28:05.737Z,36.17
2017-11-10T01:30:31.945Z,36.73
2017-11-10T01:32:58.203Z,40.10
2017-11-10T01:35:25.375Z,34.27
2017-11-10T01:37:51.590Z,36.33
2017-11-10T01:40:18.147Z,34.50
2017-11-10T01:42:45.304Z,32.80
2017-11-10T01:45:11.895Z,35.30
2017-11-10T01:47:38.151Z,38.40
2017-11-10T01:50:04.335Z,36.60
2017-11-10T01:52:30.551Z,34.73
2017-11-10T01:54:56.744Z,39.03
2017-11-10T01:57:22.996Z,34.87
2017-11-10T01:59:49.284Z,32.43
2017-11-10T02:02:15.924Z,34.57
2017-11-10T02:04:42.182Z,38.07
2017-11-10T02:07:08.381Z,39.60
2017-11-10T02:09:35.264Z,36.03
2017-11-10T02:12:01.854Z,36.20
2017-11-10T02:14:28.777Z,38.27
2017-11-10T02:16:54.992Z,36.23
2017-11-10T02:19:21.215Z,37.67
2017-11-10T02:21:47.443Z,31.87
2017-11-10T02:24:13.668Z,34.03
2017-11-10T02:26:41.388Z,36.70
2017-11-10T02:29:07.614Z,37.47
2017-11-10T02:31:33.873Z,37.03
2017-11-10T02:34:00.665Z,34.90
2017-11-10T02:36:26.906Z,30.50
2017-11-10T02:38:53.145Z,34.17
2017-11-10T02:41:19.348Z,37.70
2017-11-10T02:43:45.551Z,40.03
2017-11-10T02:46:12.152Z,44.53
2017-11-10T02:48:38.426Z,37.80
2017-11-10T02:51:04.630Z,43.17
2017-11-10T02:53:30.884Z,37.87
2017-11-10T02:55:57.149Z,36.73
2017-11-10T02:58:23.752Z,47.57
2017-11-10T03:00:49.958Z,30.37
2017-11-10T03:03:16.148Z,41.73
2017-11-10T03:05:42.381Z,40.03
2017-11-10T03:08:09.308Z,40.23
2017-11-10T03:10:36.475Z,40.83
2017-11-10T03:13:03.404Z,38.93
2017-11-10T03:15:29.719Z,43.57
2017-11-10T03:17:56.493Z,40.37
2017-11-10T03:20:22.792Z,48.37
2017-11-10T03:22:49.753Z,45.67
2017-11-10T03:25:16.718Z,40.97
2017-11-10T03:27:42.916Z,48.07
2017-11-10T03:30:09.086Z,42.37
2017-11-10T03:32:35.349Z,47.00
2017-11-10T03:35:01.561Z,49.63
2017-11-10T03:37:27.778Z,51.77
2017-11-10T03:39:55.762Z,51.30
2017-11-10T03:42:21.945Z,46.90
2017-11-10T03:44:48.180Z,47.10
2017-11-10T03:47:14.483Z,48.70
2017-11-10T03:49:40.650Z,57.03
2017-11-10T03:52:07.577Z,49.47
2017-11-10T03:54:34.829Z,56.30
2017-11-10T03:57:01.777Z,56.43
2017-11-10T03:59:29.221Z,53.90
2017-11-10T04:01:55.418Z,56.40
2017-11-10T04:04:21.611Z,53.70
2017-11-10T04:06:49.032Z,52.73
2017-11-10T04:09:15.279Z,58.80
2017-11-10T04:11:41.465Z,51.73
2017-11-10T04:14:08.660Z,48.37
2017-11-10T04:16:34.874Z,46.53
2017-11-10T04:19:01.071Z,52.40
2017-11-10T04:21:27.265Z,58.27
2017-11-10T04:33:33.547Z,47.77
2017-11-10T04:35:59.763Z,50.30
2017-11-10T04:38:26.756Z,44.77
2017-11-10T04:40:53.005Z,48.27
2017-11-10T04:43:19.963Z,52.83
2017-11-10T04:45:47.317Z,55.33
2017-11-10T04:48:13.526Z,51.60
2017-11-10T04:50:40.253Z,52.57
2017-11-10T04:53:06.522Z,57.50
2017-11-10T04:55:32.794Z,53.17
2017-11-10T04:57:59.023Z,48.40
2017-11-10T05:00:25.223Z,45.27
2017-11-10T05:02:53.635Z,52.53
2017-11-10T05:05:19.872Z,48.70
2017-11-10T05:07:46.128Z,49.80
2017-11-10T05:10:13.437Z,43.07
2017-11-10T05:12:40.367Z,48.57
2017-11-10T05:15:06.557Z,49.70
2017-11-10T05:17:32.750Z,45.43
2017-11-10T05:19:58.984Z,51.30
2017-11-10T05:22:25.246Z,40.97
2017-11-10T05:24:51.893Z,52.60
2017-11-10T05:27:18.088Z,51.07
2017-11-10T05:29:44.859Z,48.47
2017-11-10T05:32:11.794Z,46.07
2017-11-10T05:34:38.068Z,50.17
2017-11-10T05:37:05.776Z,50.00
2017-11-10T05:39:32.021Z,55.83
2017-11-10T05:41:59.647Z,52.87
2017-11-10T05:44:27.547Z,51.17
2017-11-10T05:46:53.742Z,48.03
2017-11-10T05:49:20.397Z,51.73
2017-11-10T05:51:46.633Z,48.40
2017-11-10T05:54:12.873Z,42.13
2017-11-10T05:56:39.076Z,47.70
2017-11-10T05:59:05.352Z,51.17
2017-11-10T06:01:31.572Z,48.77
2017-11-10T06:03:58.572Z,50.80
2017-11-10T06:06:24.803Z,50.97
2017-11-10T06:08:51.048Z,51.50
2017-11-10T06:11:17.294Z,44.63
2017-11-10T06:13:44.288Z,49.30
2017-11-10T06:16:10.496Z,51.77
2017-11-10T06:18:38.226Z,49.20
2017-11-10T06:21:04.868Z,50.27
2017-11-10T06:23:31.091Z,43.30
2017-11-10T06:25:57.289Z,47.90
2017-11-10T06:28:23.523Z,43.70
2017-11-10T06:30:49.749Z,39.80
2017-11-10T06:33:15.984Z,44.30
2017-11-10T06:35:42.987Z,38.77
2017-11-10T06:38:10.220Z,41.90
2017-11-10T06:40:37.289Z,38.50
2017-11-10T06:43:03.501Z,49.43
2017-11-10T06:45:29.820Z,45.50
2017-11-10T06:47:56.044Z,38.77
2017-11-10T06:50:22.254Z,42.10
2017-11-10T06:52:48.476Z,40.60
2017-11-10T06:55:14.716Z,39.17
2017-11-10T06:57:41.926Z,37.77
2017-11-10T07:00:08.300Z,35.57
2017-11-10T07:02:35.518Z,38.20
2017-11-10T07:14:41.829Z,31.80
2017-11-10T07:17:09.048Z,32.07
2017-11-10T07:19:35.359Z,29.20
2017-11-10T07:22:01.974Z,27.40
2017-11-10T07:24:28.380Z,23.40
2017-11-10T07:26:55.363Z,26.93
2017-11-10T07:29:22.928Z,27.23
2017-11-10T07:31:49.519Z,29.67
2017-11-10T07:34:15.780Z,30.57
2017-11-10T07:36:42.767Z,24.33
2017-11-10T07:39:09.370Z,25.20
2017-11-10T07:41:37.295Z,24.60
2017-11-10T07:44:03.461Z,25.40
2017-11-10T07:46:29.790Z,21.90
2017-11-10T07:48:55.987Z,24.97
2017-11-10T07:51:22.603Z,26.13
2017-11-10T07:53:49.524Z,25.13
2017-11-10T07:56:16.084Z,25.67
2017-11-10T07:58:42.268Z,26.00
2017-11-10T08:01:08.472Z,25.97
2017-11-10T08:03:35.596Z,22.73
2017-11-10T08:06:02.969Z,31.77
2017-11-10T08:08:29.302Z,25.20
2017-11-10T08:10:55.505Z,23.30
2017-11-10T08:13:21.777Z,22.93
2017-11-10T08:15:50.207Z,27.60
2017-11-10T08:18:17.493Z,22.23
2017-11-10T08:20:43.733Z,21.10
2017-11-10T08:23:10.017Z,31.37
2017-11-10T08:25:36.847Z,24.90
2017-11-10T08:28:03.064Z,21.73
2017-11-10T08:30:29.987Z,22.30
2017-11-10T08:32:56.932Z,25.37
2017-11-10T08:35:24.049Z,24.30
2017-11-10T08:37:50.997Z,22.13
2017-11-10T08:40:17.337Z,21.70
2017-11-10T08:42:43.819Z,22.20
2017-11-10T08:45:10.105Z,21.27
2017-11-10T08:47:37.072Z,23.67
2017-11-10T08:50:03.280Z,23.17
2017-11-10T08:52:29.580Z,25.10
2017-11-10T08:54:55.825Z,23.10
2017-11-10T08:57:22.912Z,21.63
2017-11-10T08:59:49.147Z,27.70
2017-11-10T09:02:17.069Z,31.63
2017-11-10T09:04:43.608Z,19.63
2017-11-10T09:07:10.353Z,29.03
2017-11-10T09:09:51.515Z,24.07
2017-11-10T09:12:17.704Z,28.50
2017-11-10T09:14:44.897Z,32.43
2017-11-10T09:17:11.174Z,23.50
2017-11-10T09:19:37.372Z,29.03
2017-11-10T09:22:04.051Z,27.30
2017-11-10T09:24:30.299Z,31.57
2017-11-10T09:26:56.670Z,31.17
2017-11-10T09:29:24.499Z,33.43
2017-11-10T09:32:06.384Z,35.67
2017-11-10T09:34:39.458Z,41.30
2017-11-10T09:37:09.942Z,31.63
2017-11-10T09:39:37.900Z,30.40
2017-11-10T09:42:10.148Z,35.43
2017-11-10T09:44:51.369Z,35.17
2017-11-10T09:47:32.473Z,30.80
2017-11-10T09:50:16.462Z,35.10
2017-11-10T09:52:48.582Z,29.20
2017-11-10T09:55:30.668Z,31.00
2017-11-10T09:58:07.815Z,32.93
2017-11-10T10:00:40.204Z,27.03
2017-11-10T10:03:12.486Z,32.53
2017-11-10T10:08:43.871Z,26.70
2017-11-10T10:11:11.987Z,29.90
2017-11-10T10:13:45.030Z,31.03
2017-11-10T10:16:17.896Z,25.27
2017-11-10T10:19:05.324Z,26.03
2017-11-10T10:21:38.204Z,28.97
2017-11-10T10:24:04.459Z,27.23
2017-11-10T10:26:31.584Z,26.00
2017-11-10T10:28:57.816Z,26.73
2017-11-10T10:31:24.029Z,33.50
2017-11-10T10:33:51.804Z,31.27
2017-11-10T10:36:18.781Z,34.07
2017-11-10T10:38:45.412Z,31.83
2017-11-10T10:41:13.866Z,30.20
2017-11-10T10:43:40.151Z,28.03
2017-11-10T10:46:06.800Z,34.40
2017-11-10T10:48:33.052Z,31.87
2017-11-10T10:51:00.094Z,31.50
2017-11-10T10:53:27.295Z,29.90
2017-11-10T10:55:54.145Z,31.50
2017-11-10T10:58:21.029Z,27.93
2017-11-10T11:00:47.317Z,30.70
2017-11-10T11:03:13.545Z,32.13
2017-11-10T11:05:39.769Z,28.47
2017-11-10T11:08:06.036Z,29.13
2017-11-10T11:10:32.627Z,29.17
2017-11-10T11:12:59.817Z,24.87
2017-11-10T11:15:26.012Z,24.13
2017-11-10T11:17:52.264Z,32.10
2017-11-10T11:20:18.531Z,32.93
2017-11-10T11:22:44.988Z,29.13
2017-11-10T11:25:11.582Z,26.60
2017-11-10T11:27:38.395Z,29.23
2017-11-10T11:30:04.633Z,22.57
2017-11-10T11:32:31.381Z,22.70
2017-11-10T11:34:58.514Z,23.93
2017-11-10T11:37:24.717Z,23.90
2017-11-10T11:39:51.717Z,20.13
2017-11-10T11:42:17.947Z,23.23
2017-11-10T11:44:44.220Z,19.40
2017-11-10T11:47:11.263Z,18.83
2017-11-10T11:49:37.461Z,19.27
2017-11-10T11:52:03.755Z,19.07
2017-11-10T11:54:29.992Z,15.97
2017-11-10T11:56:56.284Z,18.87
2017-11-10T11:59:23.306Z,19.67
2017-11-10T12:01:49.549Z,14.70
2017-11-10T12:04:15.778Z,13.57
2017-11-10T12:06:42.025Z,16.23
2017-11-10T12:09:09.033Z,13.20
2017-11-10T12:11:35.268Z,11.90
2017-11-10T12:14:01.528Z,16.30
2017-11-10T12:16:27.707Z,11.97
2017-11-10T12:18:55.695Z,13.27
2017-11-10T12:31:02.025Z,17.07
2017-11-10T12:33:28.348Z,14.63
2017-11-10T12:35:56.040Z,10.03
2017-11-10T12:38:22.629Z,11.77
2017-11-10T12:40:48.954Z,13.37
2017-11-10T12:43:15.206Z,11.20
2017-11-10T12:45:41.443Z,10.13
2017-11-10T12:48:09.407Z,13.40
2017-11-10T12:50:36.403Z,10.77
2017-11-10T12:53:02.621Z,13.47
2017-11-10T12:55:28.841Z,8.73
2017-11-10T12:57:56.486Z,10.13
2017-11-10T13:00:23.511Z,14.10
2017-11-10T13:02:49.986Z,15.57
2017-11-10T13:05:16.436Z,11.13
2017-11-10T13:07:43.078Z,14.43
2017-11-10T13:10:10.081Z,11.30
2017-11-10T13:12:37.275Z,10.20
2017-11-10T13:15:03.844Z,11.03
2017-11-10T13:17:30.116Z,10.43
2017-11-10T13:19:56.371Z,9.87
2017-11-10T13:22:22.609Z,9.53
2017-11-10T13:24:49.185Z,10.50
2017-11-10T13:27:15.407Z,10.90
2017-11-10T13:29:41.676Z,9.00
2017-11-10T13:32:08.905Z,9.50
2017-11-10T13:34:35.179Z,10.07
2017-11-10T13:37:01.476Z,12.03
2017-11-10T13:39:27.680Z,11.00
2017-11-10T13:41:53.900Z,12.60
2017-11-10T13:44:20.094Z,13.60
2017-11-10T13:46:46.635Z,9.90
2017-11-10T13:49:13.644Z,11.33
2017-11-10T13:51:40.652Z,12.43
2017-11-10T13:54:07.606Z,15.03
2017-11-10T13:56:33.802Z,11.27
2017-11-10T13:59:00.364Z,21.53
2017-11-10T14:01:26.582Z,14.40
2017-11-10T14:03:54.726Z,13.13
2017-11-10T14:06:21.370Z,19.27
2017-11-10T14:08:47.776Z,22.00
2017-11-10T14:11:14.584Z,13.10
2017-11-10T14:13:40.788Z,14.70
2017-11-10T14:16:06.984Z,18.73
2017-11-10T14:18:33.170Z,13.20
2017-11-10T14:20:59.485Z,14.17
2017-11-10T14:23:26.957Z,16.03
2017-11-10T14:25:53.559Z,12.77
2017-11-10T14:28:19.744Z,16.10
2017-11-10T14:30:45.937Z,14.20
2017-11-10T14:33:12.193Z,10.60
2017-11-10T14:35:39.444Z,14.37
2017-11-10T14:38:05.690Z,15.17
2017-11-10T14:50:12.920Z,7.97
2017-11-10T14:52:40.126Z,8.10
2017-11-10T14:55:06.562Z,14.07
2017-11-10T14:57:32.895Z,6.30
2017-11-10T14:59:59.979Z,7.27
2017-11-10T15:02:27.053Z,6.37
2017-11-10T15:04:54.891Z,5.70
2017-11-10T15:07:21.043Z,4.70
2017-11-10T15:09:47.268Z,5.80
2017-11-10T15:12:13.778Z,11.13
2017-11-10T15:14:40.151Z,10.00
2017-11-10T15:17:07.169Z,7.00
2017-11-10T15:19:33.500Z,4.87
2017-11-10T15:22:00.533Z,5.73
2017-11-10T15:24:26.814Z,4.87
2017-11-10T15:26:53.464Z,3.50
2017-11-10T15:29:19.785Z,8.37
2017-11-10T15:31:46.223Z,6.10
2017-11-10T15:34:12.890Z,5.37
2017-11-10T15:36:39.845Z,6.10
2017-11-10T15:39:06.064Z,4.40
2017-11-10T15:41:32.327Z,3.73
2017-11-10T15:43:58.593Z,4.80
2017-11-10T15:46:25.068Z,3.83
2017-11-10T15:48:51.326Z,9.80
2017-11-10T15:51:17.520Z,4.50
2017-11-10T15:53:43.701Z,9.40
2017-11-10T15:56:09.964Z,4.77
2017-11-10T15:58:36.183Z,8.10
2017-11-10T16:01:02.428Z,3.80
2017-11-10T16:03:28.662Z,7.07
2017-11-10T16:05:55.604Z,5.03
2017-11-10T16:08:21.821Z,10.67
2017-11-10T16:10:48.931Z,4.40
2017-11-10T16:13:16.636Z,8.63
2017-11-10T16:15:42.872Z,5.67
2017-11-10T16:18:09.583Z,4.90
2017-11-10T16:20:35.909Z,6.77
2017-11-10T16:23:02.961Z,6.20
2017-11-10T16:25:29.142Z,4.00
2017-11-10T16:27:57.056Z,4.53
2017-11-10T16:30:23.288Z,10.17
2017-11-10T16:32:49.866Z,3.93
2017-11-10T16:35:16.095Z,4.40
2017-11-10T16:37:42.539Z,8.73
2017-11-10T16:40:08.840Z,7.10
2017-11-10T16:42:35.004Z,7.33
2017-11-10T16:45:01.262Z,12.50
2017-11-10T16:47:27.826Z,5.23
2017-11-10T16:49:55.136Z,5.73
2017-11-10T16:52:21.335Z,4.27
2017-11-10T16:54:47.650Z,6.97
2017-11-10T16:57:13.935Z,5.83
2017-11-10T16:59:40.480Z,12.40
2017-11-10T17:02:06.710Z,7.60
2017-11-10T17:04:34.298Z,5.73
2017-11-10T17:07:00.570Z,10.10
2017-11-10T17:09:26.828Z,9.80
2017-11-10T17:11:53.999Z,8.33
2017-11-10T17:14:20.312Z,4.63
2017-11-10T17:16:47.292Z,4.67
2017-11-10T17:19:13.875Z,8.10
2017-11-10T17:21:40.883Z,7.90
2017-11-10T17:24:08.277Z,8.00
2017-11-10T17:26:34.657Z,7.50
2017-11-10T17:29:00.976Z,8.03
2017-11-10T17:31:28.084Z,10.83
2017-11-10T17:36:28.931Z,11.50
2017-11-10T17:38:56.093Z,21.30
2017-11-10T17:41:22.423Z,11.00
2017-11-10T17:43:48.734Z,20.00
2017-11-10T17:46:15.186Z,10.90
2017-11-10T17:48:41.791Z,18.60
2017-11-10T17:51:08.845Z,15.40
2017-11-10T17:53:36.071Z,7.40
2017-11-10T17:56:02.373Z,6.10
2017-11-10T17:58:29.651Z,11.40
2017-11-10T18:00:55.869Z,7.23
2017-11-10T18:03:23.528Z,21.67
2017-11-10T18:05:50.012Z,20.20
2017-11-10T18:21:06.541Z,11.73
2017-11-10T18:23:33.923Z,15.47
2017-11-10T18:26:01.071Z,11.93
2017-11-10T18:28:27.503Z,16.93
2017-11-10T18:30:53.803Z,8.60
2017-11-10T18:33:20.036Z,6.27
2017-11-10T18:35:46.269Z,9.57
2017-11-10T18:38:12.549Z,9.50
2017-11-10T18:40:38.832Z,11.30
2017-11-10T18:43:05.114Z,17.50
2017-11-10T18:45:31.364Z,7.30
2017-11-10T18:47:57.613Z,6.80
2017-11-10T18:50:23.906Z,11.03
2017-11-10T18:52:50.148Z,9.07
2017-11-10T18:55:16.498Z,11.57
2017-11-10T18:57:42.690Z,13.23
2017-11-10T19:00:08.986Z,9.60
2017-11-10T19:02:35.239Z,14.63
2017-11-10T19:05:01.412Z,8.53
2017-11-10T19:07:28.100Z,15.50
2017-11-10T19:09:54.310Z,15.23
2017-11-10T19:12:22.024Z,10.27
2017-11-10T19:14:48.259Z,11.97
2017-11-10T19:17:14.792Z,9.73
2017-11-10T19:19:41.381Z,10.10
2017-11-10T19:22:07.614Z,10.40
2017-11-10T19:24:33.828Z,12.60
2017-11-10T19:27:00.013Z,13.10
2017-11-10T19:29:26.598Z,9.53
2017-11-10T19:31:52.970Z,13.87
2017-11-10T19:34:19.224Z,16.20
2017-11-10T19:36:45.455Z,8.27
2017-11-10T19:39:11.834Z,16.20
2017-11-10T19:41:38.148Z,9.67
2017-11-10T19:44:05.104Z,10.10
2017-11-10T19:46:32.116Z,14.80
2017-11-10T19:48:59.364Z,17.90
2017-11-10T19:51:30.337Z,20.00
2017-11-10T19:54:00.297Z,26.53
2017-11-10T20:06:07.576Z,13.47
2017-11-10T20:08:33.830Z,12.13
2017-11-10T20:11:00.095Z,11.47
2017-11-10T20:13:27.834Z,16.90
2017-11-10T20:15:55.272Z,20.63
2017-11-10T20:28:02.132Z,26.37
2017-11-10T20:30:29.532Z,18.77
2017-11-10T20:32:55.985Z,17.17
2017-11-10T20:35:22.974Z,29.17
2017-11-10T20:37:52.289Z,14.80
2017-11-10T20:53:11.226Z,21.07
2017-11-10T20:55:38.218Z,14.53
2017-11-10T20:58:05.343Z,24.53
2017-11-10T21:00:32.300Z,20.97
2017-11-10T21:02:59.072Z,10.47
2017-11-10T21:05:25.353Z,13.67
2017-11-10T21:20:41.606Z,17.30
2017-11-10T21:23:08.613Z,16.37
2017-11-10T21:25:35.702Z,19.63
2017-11-10T21:28:03.097Z,17.63
2017-11-10T21:33:19.008Z,18.70
2017-11-10T21:35:46.718Z,10.03
2017-11-10T21:38:13.961Z,22.53
2017-11-10T21:40:41.010Z,11.37
2017-11-10T21:43:07.327Z,13.30
2017-11-10T21:45:33.648Z,13.93
2017-11-10T21:47:59.871Z,23.30
2017-11-10T21:50:26.116Z,8.80
2017-11-10T21:52:52.377Z,13.90
2017-11-10T21:55:19.483Z,13.60
2017-11-10T21:57:45.760Z,17.00
2017-11-10T22:00:12.741Z,12.13
2017-11-10T22:02:39.162Z,10.80
2017-11-10T22:05:05.514Z,17.73
2017-11-10T22:07:31.724Z,18.10
2017-11-10T22:09:57.971Z,16.13
2017-11-10T22:12:24.622Z,14.23
2017-11-10T22:14:50.934Z,14.47
2017-11-10T22:17:17.312Z,10.33
2017-11-10T22:19:43.541Z,10.00
2017-11-10T22:22:10.548Z,10.83
2017-11-10T22:24:36.900Z,21.10
2017-11-10T22:27:03.247Z,15.70
2017-11-10T22:29:29.536Z,18.60
2017-11-10T22:32:00.132Z,17.00
2017-11-10T22:34:26.586Z,17.17
2017-11-10T22:36:53.372Z,14.80
2017-11-10T22:39:19.549Z,18.93
2017-11-10T22:41:47.134Z,9.83
2017-11-10T22:44:13.590Z,11.40
2017-11-10T22:46:39.802Z,13.67
2017-11-10T22:49:06.401Z,18.20
2017-11-10T22:51:32.650Z,14.10
2017-11-10T22:53:59.345Z,12.40
2017-11-10T22:56:25.810Z,20.00
2017-11-10T22:58:52.461Z,15.53
2017-11-10T23:01:19.261Z,11.03
2017-11-10T23:03:46.606Z,11.23
2017-11-10T23:06:12.888Z,13.10
2017-11-10T23:08:39.393Z,12.10
2017-11-10T23:11:05.637Z,22.07
2017-11-10T23:13:33.005Z,14.03
2017-11-10T23:15:59.583Z,13.00
2017-11-10T23:18:25.777Z,10.47
2017-11-10T23:20:53.909Z,18.10
2017-11-10T23:23:20.103Z,16.33
2017-11-10T23:25:46.306Z,13.13
2017-11-10T23:28:13.577Z,14.40
2017-11-10T23:30:40.184Z,17.67
2017-11-10T23:33:08.542Z,14.00
2017-11-10T23:35:35.238Z,14.53
2017-11-10T23:38:01.985Z,13.53
2017-11-10T23:40:28.701Z,18.97
2017-11-10T23:42:55.600Z,14.20
2017-11-10T23:45:22.002Z,11.13
2017-11-10T23:47:48.728Z,15.33
2017-11-10T23:50:16.629Z,12.70
2017-11-10T23:52:43.034Z,13.70
2017-11-10T23:55:09.621Z,20.63
2017-11-10T23:57:35.803Z,14.27
